Time;durP1;ratioP1;P1;durP2;ratioP2;P2;SDS_P1;SDS_P2;PMS_P1;PMS_P2;Temp;Humidity;BMP_temperature;BMP_pressure;BME280_temperature;BME280_humidity;BME280_pressure;Samples;Min_cycle;Max_cycle;Signal;HPM_P1;HPM_P2
2021/10/14 00:01:34;;;;;;;3.97;3.43;;;9.20;1.00;;;;;;5047490;28;20199;-82
2021/10/14 00:04:00;;;;;;;3.97;3.63;;;8.30;1.00;;;;;;5051346;28;20221;-83
2021/10/14 00:06:26;;;;;;;3.40;3.20;;;9.30;1.00;;;;;;5038409;28;20198;-83
2021/10/14 00:08:52;;;;;;;3.67;3.37;;;;;;;;;;5072475;28;20175;-83
2021/10/14 00:11:17;;;;;;;4.37;3.40;;;9.20;1.00;;;;;;5066069;28;20190;-83
2021/10/14 00:13:43;;;;;;;3.97;3.57;;;9.20;1.00;;;;;;5034503;28;20198;-83
2021/10/14 00:16:09;;;;;;;4.33;3.73;;;9.30;1.00;;;;;;5052770;28;20182;-83
2021/10/14 00:18:35;;;;;;;3.97;3.63;;;9.30;1.00;;;;;;5028681;28;20222;-85
2021/10/14 00:21:01;;;;;;;4.17;3.03;;;9.30;1.00;;;;;;5062171;28;20249;-83
2021/10/14 00:23:27;;;;;;;3.83;3.53;;;9.30;1.00;;;;;;5036328;28;20187;-84
2021/10/14 00:25:52;;;;;;;3.57;3.27;;;9.30;1.00;;;;;;5038571;28;20274;-85
2021/10/14 00:28:18;;;;;;;4.63;3.80;;;9.30;1.00;;;;;;5039610;28;20215;-84
2021/10/14 00:30:44;;;;;;;4.57;4.17;;;9.20;1.00;;;;;;5031463;28;20183;-84
2021/10/14 00:33:10;;;;;;;7.43;3.97;;;;;;;;;;5039023;28;20198;-84
2021/10/14 00:35:36;;;;;;;4.77;4.03;;;;;;;;;;5054389;28;20183;-83
2021/10/14 00:38:02;;;;;;;5.33;4.20;;;9.20;1.00;;;;;;5034940;28;20192;-84
2021/10/14 00:40:30;;;;;;;5.30;4.00;;;9.10;1.00;;;;;;5040228;28;20216;-83
2021/10/14 00:42:56;;;;;;;4.80;4.40;;;;;;;;;;5035712;28;20187;-84
2021/10/14 00:45:21;;;;;;;4.07;3.70;;;9.20;1.00;;;;;;5037143;28;20191;-84
2021/10/14 00:47:48;;;;;;;5.40;3.90;;;9.10;1.00;;;;;;5036702;28;20218;-83
2021/10/14 00:50:13;;;;;;;4.53;4.13;;;11.20;1.00;;;;;;5049832;28;20198;-83
2021/10/14 00:52:41;;;;;;;3.97;3.67;;;9.00;1.00;;;;;;5032695;28;20183;-82
2021/10/14 00:55:10;;;;;;;6.07;4.33;;;8.90;1.00;;;;;;5039574;28;20194;-83
2021/10/14 00:57:36;;;;;;;3.87;3.57;;;;;;;;;;5040303;28;20193;-81
2021/10/14 01:00:04;;;;;;;4.67;3.60;;;8.90;1.00;;;;;;5035732;28;20245;-84
2021/10/14 01:02:30;;;;;;;3.90;3.60;;;8.90;1.00;;;;;;5034417;28;20609;-83
2021/10/14 01:04:56;;;;;;;4.40;3.67;;;;;;;;;;5039047;28;20218;-83
2021/10/14 01:07:22;;;;;;;4.03;3.73;;;8.80;1.00;;;;;;5037639;28;20217;-83
2021/10/14 01:09:48;;;;;;;3.10;2.90;;;8.70;1.00;;;;;;5038047;28;20194;-83
2021/10/14 01:12:14;;;;;;;3.47;3.23;;;11.40;1.00;;;;;;5049355;28;20184;-83
2021/10/14 01:14:40;;;;;;;3.80;3.50;;;8.80;1.00;;;;;;5058560;28;20191;-83
2021/10/14 01:17:06;;;;;;;3.43;3.13;;;9.00;1.00;;;;;;5045307;28;20202;-83
2021/10/14 01:19:32;;;;;;;3.90;3.60;;;8.80;1.00;;;;;;5037628;28;20278;-84
2021/10/14 01:21:57;;;;;;;3.13;2.83;;;8.90;1.00;;;;;;5056202;28;20193;-84
2021/10/14 01:24:23;;;;;;;4.10;3.70;;;8.80;1.00;;;;;;5043207;28;20278;-84
2021/10/14 01:26:49;;;;;;;4.20;3.90;;;8.80;1.00;;;;;;5039809;28;20218;-84
2021/10/14 01:29:15;;;;;;;4.30;3.93;;;;;;;;;;5039141;28;20573;-83
2021/10/14 01:31:41;;;;;;;5.67;3.93;;;;;;;;;;5046601;28;20193;-83
2021/10/14 01:34:10;;;;;;;4.17;3.77;;;;;;;;;;5058881;28;20187;-83
2021/10/14 01:36:36;;;;;;;5.60;3.80;;;8.80;1.00;;;;;;5038823;28;21072;-84
2021/10/14 01:39:03;;;;;;;4.20;3.80;;;8.70;1.00;;;;;;5042099;28;20191;-84
2021/10/14 01:41:29;;;;;;;4.33;3.90;;;;;;;;;;5043496;28;20183;-83
2021/10/14 01:43:55;;;;;;;4.33;3.93;;;;;;;;;;5040616;28;20198;-83
2021/10/14 01:46:21;;;;;;;3.77;3.40;;;8.60;1.00;;;;;;5041930;28;20187;-83
2021/10/14 01:48:47;;;;;;;4.10;3.67;;;;;;;;;;5040055;28;20230;-83
2021/10/14 01:51:13;;;;;;;5.07;4.60;;;8.60;1.00;;;;;;5034417;28;20328;-83
2021/10/14 01:53:38;;;;;;;4.43;4.03;;;8.50;1.00;;;;;;5042162;28;20179;-83
2021/10/14 01:56:05;;;;;;;4.60;4.20;;;8.50;1.00;;;;;;5040412;28;20198;-83
2021/10/14 01:58:31;;;;;;;6.03;4.30;;;;;;;;;;5038924;28;20199;-83
2021/10/14 02:00:57;;;;;;;8.50;4.37;;;8.50;1.00;;;;;;5044750;28;20190;-83
2021/10/14 02:03:23;;;;;;;4.87;4.37;;;;;;;;;;5037173;28;20211;-84
2021/10/14 02:05:49;;;;;;;5.67;4.40;;;8.40;1.00;;;;;;5038179;28;20294;-84
2021/10/14 02:08:15;;;;;;;4.60;4.20;;;;;;;;;;5037371;28;20205;-83
2021/10/14 02:10:40;;;;;;;4.73;4.33;;;8.40;1.00;;;;;;5047700;28;20191;-84
2021/10/14 02:13:06;;;;;;;5.67;4.20;;;10.60;1.00;;;;;;5055626;28;20383;-83
2021/10/14 02:15:32;;;;;;;4.63;4.23;;;8.50;1.00;;;;;;5038967;28;20183;-83
2021/10/14 02:17:58;;;;;;;4.47;4.07;;;;;;;;;;5056169;28;20221;-84
2021/10/14 02:20:24;;;;;;;4.30;3.90;;;8.50;1.00;;;;;;5052471;28;20564;-84
2021/10/14 02:22:50;;;;;;;6.33;4.90;;;;;;;;;;5058128;28;20188;-83
2021/10/14 02:25:17;;;;;;;4.60;4.20;;;8.50;1.00;;;;;;5051744;28;20191;-84
2021/10/14 02:27:43;;;;;;;5.13;4.70;;;9.00;1.00;;;;;;5040184;28;20203;-84
2021/10/14 02:30:10;;;;;;;4.93;4.53;;;9.00;1.00;;;;;;5047441;28;20695;-84
2021/10/14 02:32:37;;;;;;;5.00;4.50;;;9.30;1.00;;;;;;5054056;28;20255;-84
2021/10/14 02:35:04;;;;;;;5.83;5.30;;;10.00;1.00;;;;;;5038453;28;20183;-83
2021/10/14 02:37:30;;;;;;;4.37;3.93;;;8.50;1.00;;;;;;5039164;28;20608;-84
2021/10/14 02:39:55;;;;;;;4.87;4.40;;;8.50;1.00;;;;;;5055375;28;20195;-84
2021/10/14 02:42:21;;;;;;;5.20;4.57;;;10.30;1.00;;;;;;5055764;28;20214;-83
2021/10/14 02:44:47;;;;;;;6.00;4.60;;;8.70;1.00;;;;;;5037900;28;20205;-83
2021/10/14 02:47:13;;;;;;;5.20;4.70;;;9.40;1.00;;;;;;5070251;28;20263;-84
2021/10/14 02:49:39;;;;;;;5.10;4.60;;;8.80;1.00;;;;;;5035816;28;20183;-83
2021/10/14 02:52:05;;;;;;;5.00;4.50;;;8.50;1.00;;;;;;5046215;28;20187;-83
2021/10/14 02:54:31;;;;;;;6.13;4.80;;;;;;;;;;5033913;28;20548;-83
2021/10/14 02:56:57;;;;;;;5.83;5.03;;;8.50;1.00;;;;;;5038527;28;20187;-83
2021/10/14 02:59:24;;;;;;;5.70;5.20;;;10.30;1.00;;;;;;5038548;28;20178;-83
2021/10/14 03:01:50;;;;;;;7.20;5.23;;;8.50;1.00;;;;;;5037539;28;20221;-84
2021/10/14 03:04:16;;;;;;;5.60;5.10;;;8.50;1.00;;;;;;5038605;28;20213;-83
2021/10/14 03:06:41;;;;;;;5.83;5.23;;;8.80;1.00;;;;;;5062746;28;20243;-83
2021/10/14 03:09:07;;;;;;;6.17;5.50;;;8.50;1.00;;;;;;5042285;28;20694;-84
2021/10/14 03:11:33;;;;;;;5.97;5.43;;;8.50;1.00;;;;;;5065463;28;20245;-84
2021/10/14 03:13:58;;;;;;;5.57;5.07;;;8.50;1.00;;;;;;5040321;28;20222;-84
2021/10/14 03:16:24;;;;;;;6.03;5.50;;;8.50;1.00;;;;;;5039036;28;20179;-84
2021/10/14 03:18:51;;;;;;;6.20;5.57;;;;;;;;;;5037678;28;20288;-84
2021/10/14 03:21:20;;;;;;;6.07;5.30;;;8.50;1.00;;;;;;5054450;28;20191;-84
2021/10/14 03:23:46;;;;;;;6.20;5.70;;;8.50;1.00;;;;;;5041222;28;20194;-84
2021/10/14 03:26:12;;;;;;;6.50;5.27;;;7.90;1.00;;;;;;5035218;28;20206;-84
2021/10/14 03:28:37;;;;;;;6.70;5.37;;;8.50;1.00;;;;;;5035496;28;20211;-84
2021/10/14 03:31:03;;;;;;;5.93;5.20;;;8.60;1.00;;;;;;5049497;28;20190;-83
2021/10/14 03:33:29;;;;;;;8.13;5.07;;;8.60;1.00;;;;;;5050665;28;20685;-83
2021/10/14 03:35:55;;;;;;;5.80;5.07;;;8.70;1.00;;;;;;5048308;28;20176;-84
2021/10/14 03:38:20;;;;;;;8.47;5.27;;;10.80;1.00;;;;;;5034949;28;20194;-84
2021/10/14 03:40:46;;;;;;;5.60;5.10;;;;;;;;;;5043646;28;20191;-84
2021/10/14 03:43:12;;;;;;;6.30;5.30;;;8.60;1.00;;;;;;5041624;28;20194;-83
2021/10/14 03:45:38;;;;;;;6.80;5.93;;;8.60;1.00;;;;;;5039825;28;20226;-83
2021/10/14 03:48:04;;;;;;;5.60;5.13;;;8.60;1.00;;;;;;5032358;28;20306;-83
2021/10/14 03:50:30;;;;;;;5.50;5.00;;;8.60;1.00;;;;;;5048523;28;20194;-84
2021/10/14 03:52:55;;;;;;;7.77;5.57;;;8.70;1.00;;;;;;5046693;28;20184;-84
2021/10/14 03:55:21;;;;;;;5.87;5.27;;;8.70;1.00;;;;;;5031248;28;20249;-83
2021/10/14 03:57:47;;;;;;;6.17;5.47;;;;;;;;;;5048443;28;20718;-84
2021/10/14 04:00:13;;;;;;;7.73;5.43;;;8.80;1.00;;;;;;5036788;28;20214;-85
2021/10/14 04:02:42;;;;;;;7.97;5.90;;;;;;;;;;5060409;28;20210;-84
2021/10/14 04:05:08;;;;;;;6.37;5.77;;;8.70;1.00;;;;;;5031691;28;20207;-84
2021/10/14 04:07:34;;;;;;;7.10;4.90;;;8.70;1.00;;;;;;5068154;28;20223;-83
2021/10/14 04:10:01;;;;;;;5.90;5.40;;;8.70;1.00;;;;;;5054593;28;20198;-85
2021/10/14 04:12:27;;;;;;;8.17;5.70;;;;;;;;;;5050056;28;20203;-85
2021/10/14 04:14:53;;;;;;;6.93;5.87;;;8.70;1.00;;;;;;5035573;28;20891;-85
2021/10/14 04:17:18;;;;;;;5.70;5.20;;;8.70;1.00;;;;;;5048204;28;20217;-85
2021/10/14 04:19:44;;;;;;;6.43;5.50;;;;;;;;;;5047004;28;20212;-84
2021/10/14 04:22:10;;;;;;;6.00;5.50;;;8.80;1.00;;;;;;5036829;28;20186;-84
2021/10/14 04:24:38;;;;;;;5.60;5.10;;;8.80;1.00;;;;;;5038003;28;20214;-84
2021/10/14 04:27:04;;;;;;;6.17;5.13;;;8.80;1.00;;;;;;5053620;28;20219;-84
2021/10/14 04:29:30;;;;;;;6.57;5.37;;;;;;;;;;5052784;28;21980;-84
2021/10/14 04:31:59;;;;;;;8.07;5.93;;;8.80;1.00;;;;;;5038302;28;20199;-85
2021/10/14 04:34:25;;;;;;;5.37;4.93;;;10.50;1.00;;;;;;5051275;28;20667;-84
2021/10/14 04:36:50;;;;;;;6.30;5.53;;;8.80;1.00;;;;;;5045254;28;20218;-84
2021/10/14 04:39:16;;;;;;;5.80;4.80;;;8.80;1.00;;;;;;5038252;28;20245;-84
2021/10/14 04:41:44;;;;;;;7.70;6.10;;;8.80;1.00;;;;;;5039078;28;20231;-84
2021/10/14 04:44:10;;;;;;;5.73;5.23;;;8.80;1.00;;;;;;5036191;28;20227;-84
2021/10/14 04:46:35;;;;;;;6.00;5.40;;;10.60;1.00;;;;;;5053067;28;20188;-84
2021/10/14 04:49:03;;;;;;;6.53;5.53;;;;;;;;;;5056493;28;20191;-84
2021/10/14 04:51:29;;;;;;;10.47;5.77;;;8.70;1.00;;;;;;5043193;28;20254;-84
2021/10/14 04:53:54;;;;;;;6.47;5.93;;;10.80;1.00;;;;;;5040750;28;20199;-84
2021/10/14 04:56:20;;;;;;;5.47;5.00;;;9.40;1.00;;;;;;5059494;28;20191;-84
2021/10/14 04:58:46;;;;;;;6.30;5.67;;;8.70;1.00;;;;;;5041914;28;20205;-84
2021/10/14 05:01:12;;;;;;;5.90;5.40;;;;;;;;;;5039799;28;20191;-83
2021/10/14 05:03:37;;;;;;;5.57;5.07;;;8.70;1.00;;;;;;5041998;28;20215;-84
2021/10/14 05:06:03;;;;;;;6.23;5.50;;;;;;;;;;5042707;28;20206;-84
2021/10/14 05:08:29;;;;;;;6.10;5.50;;;;;;;;;;5036238;28;20210;-84
2021/10/14 05:10:55;;;;;;;6.03;5.50;;;8.70;1.00;;;;;;5051382;28;20190;-84
2021/10/14 05:13:21;;;;;;;6.50;5.20;;;8.70;1.00;;;;;;5045558;28;20244;-85
2021/10/14 05:15:46;;;;;;;6.40;5.87;;;8.70;1.00;;;;;;5034884;28;20190;-84
2021/10/14 05:18:12;;;;;;;6.00;5.50;;;10.40;1.00;;;;;;5041869;28;20785;-85
2021/10/14 05:20:37;;;;;;;5.53;5.13;;;8.70;1.00;;;;;;5041459;28;20220;-85
2021/10/14 05:23:03;;;;;;;6.07;5.43;;;8.70;1.00;;;;;;5043280;28;20201;-85
2021/10/14 05:25:29;;;;;;;5.73;5.20;;;11.40;1.00;;;;;;5026461;28;20183;-85
2021/10/14 05:27:54;;;;;;;6.77;6.07;;;11.50;1.00;;;;;;5039992;28;20218;-85
2021/10/14 05:30:20;;;;;;;7.93;5.50;;;11.60;1.00;;;;;;5044190;28;20291;-85
2021/10/14 05:32:46;;;;;;;9.43;6.00;;;10.80;1.00;;;;;;5055846;28;20191;-85
2021/10/14 05:35:12;;;;;;;6.33;5.60;;;8.80;1.00;;;;;;5038529;28;20301;-85
2021/10/14 05:37:38;;;;;;;6.90;5.87;;;8.80;1.00;;;;;;5042671;28;20174;-85
2021/10/14 05:40:06;;;;;;;7.40;5.53;;;8.70;1.00;;;;;;5057622;28;20183;-85
2021/10/14 05:42:31;;;;;;;6.20;5.60;;;8.80;1.00;;;;;;5038347;28;20242;-85
2021/10/14 05:44:57;;;;;;;6.47;5.87;;;9.50;1.00;;;;;;5051175;28;20272;-85
2021/10/14 05:47:23;;;;;;;8.47;5.67;;;8.90;1.00;;;;;;5070184;28;20199;-85
2021/10/14 05:49:49;;;;;;;6.03;5.43;;;8.70;1.00;;;;;;5031214;28;20546;-86
2021/10/14 05:52:14;;;;;;;6.53;5.87;;;10.80;1.00;;;;;;5055485;28;20179;-85
2021/10/14 05:54:40;;;;;;;6.07;5.47;;;8.70;1.00;;;;;;5057310;28;20282;-85
2021/10/14 05:57:06;;;;;;;6.90;6.10;;;8.70;1.00;;;;;;5030491;28;20188;-85
2021/10/14 05:59:32;;;;;;;6.10;5.60;;;8.70;1.00;;;;;;5044473;28;20278;-85
2021/10/14 06:01:58;;;;;;;7.00;6.40;;;;;;;;;;5058242;28;20194;-85
2021/10/14 06:04:25;;;;;;;9.40;6.00;;;8.70;1.00;;;;;;5038590;28;20226;-85
2021/10/14 06:06:53;;;;;;;6.80;5.90;;;8.70;1.00;;;;;;5060888;28;20225;-85
2021/10/14 06:09:19;;;;;;;6.40;5.80;;;8.80;1.00;;;;;;5061195;28;20218;-85
2021/10/14 06:11:45;;;;;;;5.83;5.37;;;10.50;1.00;;;;;;5063386;28;20195;-85
2021/10/14 06:14:10;;;;;;;5.97;5.37;;;9.00;1.00;;;;;;5044232;28;20237;-85
2021/10/14 06:16:36;;;;;;;6.20;5.60;;;;;;;;;;5056534;28;20281;-85
2021/10/14 06:19:02;;;;;;;6.00;5.50;;;8.80;1.00;;;;;;5059403;28;20186;-85
2021/10/14 06:21:28;;;;;;;5.97;5.37;;;8.90;1.00;;;;;;5068114;28;20194;-85
2021/10/14 06:23:54;;;;;;;5.73;5.23;;;;;;;;;;5062760;28;20193;-84
2021/10/14 06:26:19;;;;;;;6.57;5.67;;;8.90;1.00;;;;;;5055507;28;20194;-85
2021/10/14 06:28:45;;;;;;;6.13;5.53;;;;;;;;;;5060600;28;20689;-85
2021/10/14 06:31:12;;;;;;;6.40;5.80;;;;;;;;;;5041530;28;20205;-85
2021/10/14 06:33:41;;;;;;;7.47;6.13;;;8.90;1.00;;;;;;5039357;28;20282;-85
2021/10/14 06:36:06;;;;;;;7.50;6.20;;;8.90;1.00;;;;;;5060879;28;20194;-85
2021/10/14 06:38:32;;;;;;;6.23;5.63;;;8.90;1.00;;;;;;5032948;28;20208;-84
2021/10/14 06:40:58;;;;;;;7.23;6.43;;;12.00;1.00;;;;;;5057951;28;20278;-85
2021/10/14 06:43:23;;;;;;;6.50;5.87;;;12.60;1.00;;;;;;5040118;28;20195;-85
2021/10/14 06:45:50;;;;;;;6.53;5.93;;;9.20;1.00;;;;;;5040042;28;20191;-85
2021/10/14 06:48:16;;;;;;;6.23;5.63;;;9.30;1.00;;;;;;5054459;28;20207;-85
2021/10/14 06:50:42;;;;;;;6.73;6.03;;;9.50;1.00;;;;;;5045435;28;20309;-85
2021/10/14 06:53:11;;;;;;;6.17;5.57;;;;;;;;;;5055389;28;20651;-85
2021/10/14 06:55:38;;;;;;;6.20;5.60;;;9.20;1.00;;;;;;5054947;28;20228;-85
2021/10/14 06:58:04;;;;;;;8.20;5.77;;;;;;;;;;5040280;28;20206;-85
2021/10/14 07:00:30;;;;;;;6.90;6.20;;;9.20;1.00;;;;;;5048696;28;20789;-79
2021/10/14 07:02:56;;;;;;;5.97;5.37;;;9.30;1.00;;;;;;5040834;28;20187;-79
2021/10/14 07:05:21;;;;;;;7.33;5.97;;;9.30;1.00;;;;;;5059596;28;20211;-80
2021/10/14 07:07:47;;;;;;;6.53;5.50;;;;;;;;;;5042988;28;20207;-79
2021/10/14 07:10:15;;;;;;;7.80;5.37;;;9.40;1.00;;;;;;5035810;28;20250;-79
2021/10/14 07:12:41;;;;;;;7.53;5.67;;;9.40;1.00;;;;;;5054223;28;20565;-79
2021/10/14 07:15:08;;;;;;;6.20;5.63;;;9.50;1.00;;;;;;5060830;28;20585;-79
2021/10/14 07:17:35;;;;;;;5.70;5.03;;;9.50;1.00;;;;;;5035553;28;20228;-79
2021/10/14 07:20:01;;;;;;;6.33;5.73;;;9.50;1.00;;;;;;5034700;28;20215;-80
2021/10/14 07:22:27;;;;;;;6.77;5.17;;;9.60;1.00;;;;;;5036148;28;20222;-79
2021/10/14 07:24:52;;;;;;;6.03;5.47;;;9.60;1.00;;;;;;5048132;28;20191;-79
2021/10/14 07:27:18;;;;;;;5.87;5.37;;;9.60;1.00;;;;;;5029716;28;20211;-79
2021/10/14 07:29:43;;;;;;;8.60;5.93;;;9.80;1.00;;;;;;5035404;28;20191;-79
2021/10/14 07:32:09;;;;;;;6.40;5.80;;;10.30;1.00;;;;;;5036490;28;20206;-78
2021/10/14 07:34:37;;;;;;;5.43;5.00;;;9.80;1.00;;;;;;5037722;28;20217;-79
2021/10/14 07:37:04;;;;;;;7.60;5.77;;;10.00;1.00;;;;;;5038425;28;20194;-80
2021/10/14 07:39:30;;;;;;;7.40;5.70;;;12.60;1.00;;;;;;5053953;28;20216;-79
2021/10/14 07:41:56;;;;;;;6.30;5.73;;;10.00;1.00;;;;;;5037393;28;20252;-79
2021/10/14 07:44:22;;;;;;;5.73;5.13;;;10.00;1.00;;;;;;5035082;28;20274;-79
2021/10/14 07:46:48;;;;;;;5.73;5.20;;;10.00;1.00;;;;;;5039175;28;20195;-79
2021/10/14 07:49:15;;;;;;;7.23;5.53;;;10.10;1.00;;;;;;5035441;28;20265;-79
2021/10/14 07:51:41;;;;;;;8.43;6.00;;;10.10;1.00;;;;;;5054991;28;20187;-79
2021/10/14 07:54:07;;;;;;;7.53;5.60;;;10.00;1.00;;;;;;5054623;28;20227;-79
2021/10/14 07:56:33;;;;;;;7.30;6.00;;;11.80;1.00;;;;;;5052020;28;20248;-79
2021/10/14 07:58:59;;;;;;;6.40;5.50;;;10.60;1.00;;;;;;5056761;28;20820;-79
2021/10/14 08:01:25;;;;;;;5.70;5.17;;;11.40;1.00;;;;;;5038777;28;20301;-80
2021/10/14 08:03:51;;;;;;;5.87;5.37;;;;;;;;;;5053180;28;20289;-79
2021/10/14 08:06:17;;;;;;;5.47;5.03;;;10.40;1.00;;;;;;5051450;28;20293;-79
2021/10/14 08:08:43;;;;;;;6.47;5.20;;;10.50;1.00;;;;;;5045057;28;20296;-79
2021/10/14 08:11:09;;;;;;;5.30;4.90;;;10.40;1.00;;;;;;5056359;28;20206;-80
2021/10/14 08:13:35;;;;;;;5.50;5.00;;;13.40;1.00;;;;;;5071811;28;20195;-80
2021/10/14 08:16:01;;;;;;;5.47;4.97;;;10.50;1.00;;;;;;5055238;28;20204;-80
2021/10/14 08:18:27;;;;;;;5.83;5.23;;;10.50;1.00;;;;;;5039232;28;20178;-79
2021/10/14 08:20:54;;;;;;;5.47;4.87;;;10.60;1.00;;;;;;5058309;28;20194;-79
2021/10/14 08:23:21;;;;;;;7.67;5.20;;;11.00;1.00;;;;;;5059582;28;20196;-80
2021/10/14 08:25:47;;;;;;;6.10;5.03;;;;;;;;;;5051733;28;20192;-79
2021/10/14 08:28:14;;;;;;;5.83;5.33;;;10.40;1.00;;;;;;5047812;28;20217;-79
2021/10/14 08:30:40;;;;;;;8.73;5.20;;;12.90;1.00;;;;;;5039600;28;20203;-79
2021/10/14 08:33:05;;;;;;;4.50;4.10;;;10.50;1.00;;;;;;5038758;28;20659;-80
2021/10/14 08:35:35;;;;;;;6.47;5.70;;;10.50;1.00;;;;;;5072154;28;20190;-80
2021/10/14 08:38:05;;;;;;;5.90;4.70;;;10.60;1.00;;;;;;5038900;28;20236;-80
2021/10/14 08:40:31;;;;;;;7.43;5.67;;;10.60;1.00;;;;;;5042471;28;20188;-80
2021/10/14 08:43:18;;;;;;;5.20;4.70;;;10.60;1.00;;;;;;5039101;28;20271;-80
2021/10/14 08:45:46;;;;;;;5.33;4.67;;;10.70;1.00;;;;;;5053381;28;20189;-80
2021/10/14 08:48:12;;;;;;;5.50;4.90;;;;;;;;;;5039106;28;20294;-80
2021/10/14 08:50:41;;;;;;;5.47;4.67;;;11.00;1.00;;;;;;5038229;28;20190;-79
2021/10/14 08:53:07;;;;;;;4.43;4.10;;;;;;;;;;5068004;28;20218;-80
2021/10/14 08:55:37;;;;;;;5.63;4.33;;;11.10;1.00;;;;;;5035452;28;20176;-80
2021/10/14 08:58:06;;;;;;;4.77;4.30;;;11.10;1.00;;;;;;5039095;28;20229;-80
2021/10/14 09:00:34;;;;;;;4.73;4.07;;;11.20;1.00;;;;;;5057224;28;20214;-80
2021/10/14 09:02:59;;;;;;;5.47;5.03;;;11.30;1.00;;;;;;5023279;28;20227;-79
2021/10/14 09:05:30;;;;;;;4.80;4.40;;;11.30;1.00;;;;;;5041140;28;20201;-80
2021/10/14 09:07:55;;;;;;;5.50;5.00;;;11.30;1.00;;;;;;5037634;28;20225;-81
2021/10/14 09:10:21;;;;;;;5.13;3.87;;;11.60;1.00;;;;;;5048417;28;20193;-79
2021/10/14 09:12:47;;;;;;;5.53;4.60;;;;;;;;;;5055020;28;20286;-79
2021/10/14 09:15:16;;;;;;;5.20;4.77;;;11.30;1.00;;;;;;5066390;28;20283;-80
2021/10/14 09:17:49;;;;;;;4.77;4.37;;;11.10;1.00;;;;;;5048767;28;20244;-79
2021/10/14 09:20:21;;;;;;;6.03;4.10;;;11.00;1.00;;;;;;5052422;28;20267;-79
2021/10/14 09:22:56;;;;;;;5.37;4.87;;;10.90;1.00;;;;;;5053196;28;20207;-80
2021/10/14 09:25:34;;;;;;;5.07;4.67;;;10.90;1.00;;;;;;5034784;28;20198;-80
2021/10/14 09:28:19;;;;;;;5.53;5.03;;;10.80;1.00;;;;;;5036092;28;20295;-79
2021/10/14 09:30:51;;;;;;;7.43;5.30;;;10.80;1.00;;;;;;5070081;28;20207;-80
2021/10/14 09:33:42;;;;;;;4.90;4.30;;;10.90;1.00;;;;;;5041330;28;20180;-80
2021/10/14 09:36:21;;;;;;;5.17;4.70;;;11.00;1.00;;;;;;5036809;28;20187;-80
2021/10/14 09:38:57;;;;;;;4.83;4.37;;;11.10;1.00;;;;;;5037092;28;20183;-80
2021/10/14 09:41:25;;;;;;;5.77;5.17;;;11.10;1.00;;;;;;5057037;28;20209;-80
2021/10/14 09:43:53;;;;;;;4.90;4.50;;;11.20;1.00;;;;;;5078711;28;20214;-80
2021/10/14 09:46:32;;;;;;;4.70;4.30;;;11.50;1.00;;;;;;5041181;28;20187;-80
2021/10/14 09:48:58;;;;;;;5.43;4.53;;;11.60;1.00;;;;;;5041991;28;20207;-80
2021/10/14 09:51:24;;;;;;;5.10;4.60;;;11.70;1.00;;;;;;5043689;28;20191;-80
2021/10/14 09:53:50;;;;;;;5.43;5.00;;;11.80;1.00;;;;;;5071020;28;20213;-79
2021/10/14 09:56:16;;;;;;;6.93;4.90;;;11.80;1.00;;;;;;5042625;28;20184;-80
2021/10/14 09:58:41;;;;;;;5.90;5.33;;;11.80;1.00;;;;;;5037190;28;20191;-80
2021/10/14 10:01:08;;;;;;;6.73;4.20;;;;;;;;;;5046629;28;20188;-83
2021/10/14 10:03:34;;;;;;;5.07;4.00;;;11.90;1.00;;;;;;5063558;28;20202;-82
2021/10/14 10:06:04;;;;;;;5.83;4.73;;;12.10;1.00;;;;;;5046762;28;20210;-82
2021/10/14 10:08:30;;;;;;;5.30;4.60;;;;;;;;;;5061103;28;20262;-82
2021/10/14 10:11:00;;;;;;;5.30;4.80;;;12.10;1.00;;;;;;5081236;28;20235;-82
2021/10/14 10:13:27;;;;;;;5.47;4.90;;;11.90;1.00;;;;;;5080861;28;20191;-82
2021/10/14 10:15:54;;;;;;;4.60;4.20;;;11.90;1.00;;;;;;5045141;28;20194;-81
2021/10/14 10:18:29;;;;;;;4.83;4.43;;;11.40;1.00;;;;;;5062854;28;20212;-81
2021/10/14 10:21:02;;;;;;;4.90;4.50;;;12.20;1.00;;;;;;5080505;28;20272;-82
2021/10/14 10:23:43;;;;;;;7.07;4.60;;;12.30;1.00;;;;;;5046858;28;20202;-82
2021/10/14 10:26:36;;;;;;;5.20;4.70;;;12.30;1.00;;;;;;5042642;28;20194;-81
2021/10/14 10:29:11;;;;;;;4.93;4.53;;;12.20;1.00;;;;;;5061044;28;20222;-81
2021/10/14 10:31:46;;;;;;;5.10;4.37;;;12.20;1.00;;;;;;5047291;28;20179;-81
2021/10/14 10:34:43;;;;;;;4.47;4.17;;;;;;;;;;5047231;28;20198;-81
2021/10/14 10:37:47;;;;;;;5.13;4.43;;;12.20;1.00;;;;;;5048230;28;20248;-81
2021/10/14 10:40:21;;;;;;;4.67;4.30;;;12.20;1.00;;;;;;5045756;28;20203;-81
2021/10/14 10:43:09;;;;;;;5.27;4.40;;;12.30;1.00;;;;;;5059822;28;20187;-81
2021/10/14 10:45:41;;;;;;;5.13;4.73;;;12.50;1.00;;;;;;5043389;28;20189;-81
2021/10/14 10:48:07;;;;;;;6.37;4.80;;;12.40;1.00;;;;;;5044998;28;20210;-81
2021/10/14 10:50:33;;;;;;;5.50;4.83;;;12.40;1.00;;;;;;5047302;28;20181;-81
2021/10/14 10:53:10;;;;;;;4.53;4.13;;;12.30;1.00;;;;;;5046968;28;20205;-81
2021/10/14 10:55:52;;;;;;;5.93;4.77;;;12.40;1.00;;;;;;5058894;28;20184;-81
2021/10/14 10:58:45;;;;;;;7.00;4.30;;;12.40;1.00;;;;;;5040560;28;20257;-81
2021/10/14 11:01:12;;;;;;;4.57;4.27;;;12.40;1.00;;;;;;5045729;28;20245;-83
2021/10/14 11:03:48;;;;;;;7.27;4.87;;;12.60;1.00;;;;;;5060026;28;20227;-82
2021/10/14 11:06:14;;;;;;;6.20;4.90;;;;;;;;;;5038391;28;20206;-82
2021/10/14 11:08:40;;;;;;;5.10;4.60;;;;;;;;;;5046508;28;20730;-82
2021/10/14 11:11:08;;;;;;;5.50;5.00;;;12.40;1.00;;;;;;5042094;28;20182;-82
2021/10/14 11:13:37;;;;;;;4.73;4.20;;;12.40;1.00;;;;;;5042152;28;20213;-82
2021/10/14 11:16:07;;;;;;;4.77;4.37;;;12.40;1.00;;;;;;5034132;28;20190;-82
2021/10/14 11:18:34;;;;;;;4.60;4.23;;;12.50;1.00;;;;;;5039733;28;20211;-82
2021/10/14 11:21:05;;;;;;;5.63;4.27;;;12.60;1.00;;;;;;5052503;28;20252;-83
2021/10/14 11:23:46;;;;;;;4.73;4.33;;;12.60;1.00;;;;;;5071646;28;20190;-82
2021/10/14 11:26:14;;;;;;;4.80;4.40;;;12.60;1.00;;;;;;5041289;28;20279;-83
2021/10/14 11:29:01;;;;;;;4.57;4.17;;;12.80;1.00;;;;;;5042712;28;20227;-83
2021/10/14 11:31:41;;;;;;;5.20;4.70;;;12.90;1.00;;;;;;5048519;28;20188;-82
2021/10/14 11:34:24;;;;;;;5.60;4.40;;;13.10;1.00;;;;;;5047481;28;20201;-82
2021/10/14 11:36:52;;;;;;;5.17;4.67;;;13.10;1.00;;;;;;5046456;28;20182;-83
2021/10/14 11:39:21;;;;;;;6.73;4.60;;;15.60;1.00;;;;;;5064882;28;20178;-82
2021/10/14 11:41:57;;;;;;;5.60;4.60;;;13.20;1.00;;;;;;5046123;28;20190;-82
2021/10/14 11:44:28;;;;;;;6.27;4.23;;;13.20;1.00;;;;;;5048442;28;20180;-82
2021/10/14 11:46:56;;;;;;;4.83;4.37;;;13.20;1.00;;;;;;5059769;28;20188;-84
2021/10/14 11:49:22;;;;;;;4.50;4.10;;;;;;;;;;5044990;28;20252;-83
2021/10/14 11:51:50;;;;;;;4.97;4.07;;;13.30;1.00;;;;;;5045126;28;20193;-83
2021/10/14 11:54:17;;;;;;;5.53;4.27;;;13.30;1.00;;;;;;5034775;28;20276;-84
2021/10/14 11:56:52;;;;;;;4.50;4.10;;;13.30;1.00;;;;;;5058301;28;20184;-84
2021/10/14 11:59:23;;;;;;;3.90;3.60;;;13.40;1.00;;;;;;5057594;28;20197;-84
2021/10/14 12:02:01;;;;;;;4.30;3.90;;;13.50;1.00;;;;;;5062867;28;20190;-83
2021/10/14 12:04:50;;;;;;;4.33;3.73;;;13.70;1.00;;;;;;5037526;28;20208;-83
2021/10/14 12:07:21;;;;;;;4.00;3.53;;;13.80;1.00;;;;;;5057816;28;20232;-84
2021/10/14 12:09:47;;;;;;;4.57;4.03;;;;;;;;;;5061652;28;20607;-81
2021/10/14 12:12:18;;;;;;;7.33;3.93;;;14.10;1.00;;;;;;5078900;28;20186;-81
2021/10/14 12:14:44;;;;;;;4.33;3.90;;;;;;;;;;5042509;28;20213;-81
2021/10/14 12:17:15;;;;;;;4.03;3.70;;;14.20;1.00;;;;;;5033715;28;20194;-81
2021/10/14 12:19:51;;;;;;;4.73;4.27;;;14.10;1.00;;;;;;5062956;28;20201;-80
2021/10/14 12:22:22;;;;;;;6.30;4.07;;;14.10;1.00;;;;;;5075865;28;20178;-81
2021/10/14 12:25:04;;;;;;;4.97;3.90;;;14.10;1.00;;;;;;5059631;28;20186;-82
2021/10/14 12:27:47;;;;;;;3.97;3.67;;;14.10;1.00;;;;;;5062103;28;20224;-82
2021/10/14 12:30:30;;;;;;;4.43;4.03;;;14.10;1.00;;;;;;5056382;28;20234;-82
2021/10/14 12:33:14;;;;;;;6.13;4.00;;;14.30;1.00;;;;;;5042854;28;20168;-80
2021/10/14 12:35:40;;;;;;;4.03;3.53;;;;;;;;;;5041814;28;20268;-80
2021/10/14 12:38:13;;;;;;;5.63;3.80;;;14.30;1.00;;;;;;5043781;28;20189;-80
2021/10/14 12:40:44;;;;;;;4.40;3.27;;;14.40;1.00;;;;;;5047469;28;20200;-80
2021/10/14 12:43:24;;;;;;;3.63;3.33;;;14.60;1.00;;;;;;5070857;28;20276;-80
2021/10/14 12:51:26;;;;;;;4.20;3.40;;;14.70;1.00;;;;;;5044418;28;20308;-80
2021/10/14 12:53:52;;;;;;;5.20;3.40;;;;;;;;;;5022836;28;20197;-80
2021/10/14 12:56:18;;;;;;;3.50;3.20;;;15.00;1.00;;;;;;5044034;28;20234;-80
2021/10/14 12:58:46;;;;;;;7.13;3.23;;;15.20;1.00;;;;;;5056666;28;20317;-80
2021/10/14 13:01:16;;;;;;;5.40;3.33;;;15.40;1.00;;;;;;5033626;28;20233;-80
2021/10/14 13:03:42;;;;;;;4.90;2.73;;;;;;;;;;5078634;28;20292;-80
2021/10/14 13:06:08;;;;;;;3.40;3.10;;;15.50;1.00;;;;;;5039253;28;20208;-80
2021/10/14 13:08:35;;;;;;;3.47;2.80;;;15.60;1.00;;;;;;5047965;28;20216;-80
2021/10/14 13:11:03;;;;;;;3.83;3.00;;;15.80;1.00;;;;;;5058331;28;20254;-80
2021/10/14 13:13:30;;;;;;;4.13;3.17;;;15.80;1.00;;;;;;5048385;28;20174;-80
2021/10/14 13:15:56;;;;;;;3.20;2.80;;;15.80;1.00;;;;;;5047443;28;20199;-80
2021/10/14 13:18:21;;;;;;;3.13;2.93;;;15.70;1.00;;;;;;5061472;28;20268;-82
2021/10/14 13:20:47;;;;;;;3.17;2.57;;;15.80;1.00;;;;;;5035608;28;20680;-80
2021/10/14 13:23:12;;;;;;;3.30;2.70;;;16.10;1.00;;;;;;5039569;28;20212;-79
2021/10/14 13:25:40;;;;;;;3.17;2.87;;;16.10;1.00;;;;;;5055050;28;20552;-80
2021/10/14 13:28:07;;;;;;;2.83;2.63;;;16.40;1.00;;;;;;5061309;28;20207;-82